sensor_id;sensor_type;location;lat;lon;timestamp;pressure;altitude;pressure_sealevel;temperature;humidity
39739;BME280;25422;48.286;8.484;2023-05-01T00:00:41;93997.38;;;6.17;100.00
39739;BME280;25422;48.286;8.484;2023-05-01T00:03:07;93995.75;;;6.16;100.00
39739;BME280;25422;48.286;8.484;2023-05-01T00:05:32;93996.41;;;6.18;100.00
39739;BME280;25422;48.286;8.484;2023-05-01T00:07:57;93989.94;;;6.22;100.00
39739;BME280;25422;48.286;8.484;2023-05-01T00:10:23;93998.28;;;6.26;100.00
39739;BME280;25422;48.286;8.484;2023-05-01T00:12:48;93995.22;;;6.31;100.00
39739;BME280;25422;48.286;8.484;2023-05-01T00:15:14;93994.72;;;6.27;100.00
39739;BME280;25422;48.286;8.484;2023-05-01T00:17:39;93991.28;;;6.27;100.00
39739;BME280;25422;48.286;8.484;2023-05-01T00:20:05;93986.38;;;6.23;100.00
39739;BME280;25422;48.286;8.484;2023-05-01T00:22:31;93984.63;;;6.24;100.00
39739;BME280;25422;48.286;8.484;2023-05-01T00:24:56;93975.84;;;6.25;100.00
39739;BME280;25422;48.286;8.484;2023-05-01T00:27:22;93980.88;;;6.27;100.00
39739;BME280;25422;48.286;8.484;2023-05-01T00:29:47;93976.69;;;6.26;100.00
39739;BME280;25422;48.286;8.484;2023-05-01T00:32:13;93969.69;;;6.26;100.00
39739;BME280;25422;48.286;8.484;2023-05-01T00:34:39;93968.06;;;6.25;100.00
39739;BME280;25422;48.286;8.484;2023-05-01T00:37:04;93967.09;;;6.26;100.00
39739;BME280;25422;48.286;8.484;2023-05-01T00:39:30;93963.97;;;6.22;100.00
39739;BME280;25422;48.286;8.484;2023-05-01T00:41:56;93964.13;;;6.21;100.00
39739;BME280;25422;48.286;8.484;2023-05-01T00:44:21;93956.03;;;6.24;100.00
39739;BME280;25422;48.286;8.484;2023-05-01T00:46:47;93960.22;;;6.35;100.00
39739;BME280;25422;48.286;8.484;2023-05-01T00:49:13;93954.69;;;6.38;100.00
39739;BME280;25422;48.286;8.484;2023-05-01T00:51:39;93951.94;;;6.39;100.00
39739;BME280;25422;48.286;8.484;2023-05-01T00:54:05;93947.94;;;6.45;100.00
39739;BME280;25422;48.286;8.484;2023-05-01T00:56:30;93945.34;;;6.45;100.00
39739;BME280;25422;48.286;8.484;2023-05-01T00:58:56;93948.53;;;6.39;100.00
39739;BME280;25422;48.286;8.484;2023-05-01T01:01:22;93941.19;;;6.34;100.00
39739;BME280;25422;48.286;8.484;2023-05-01T01:03:48;93939.53;;;6.33;100.00
39739;BME280;25422;48.286;8.484;2023-05-01T01:06:38;93942.13;;;6.33;100.00
39739;BME280;25422;48.286;8.484;2023-05-01T01:09:16;93939.94;;;6.20;100.00
39739;BME280;25422;48.286;8.484;2023-05-01T01:12:14;93932.28;;;6.19;100.00
39739;BME280;25422;48.286;8.484;2023-05-01T01:14:49;93925.84;;;6.23;100.00
39739;BME280;25422;48.286;8.484;2023-05-01T01:23:32;93918.31;;;6.20;100.00
39739;BME280;25422;48.286;8.484;2023-05-01T01:29:21;93919.38;;;6.27;100.00
39739;BME280;25422;48.286;8.484;2023-05-01T01:35:00;93911.13;;;6.32;100.00
39739;BME280;25422;48.286;8.484;2023-05-01T01:37:29;93908.66;;;6.30;100.00
39739;BME280;25422;48.286;8.484;2023-05-01T01:40:06;93908.28;;;6.25;100.00
39739;BME280;25422;48.286;8.484;2023-05-01T01:42:58;93904.53;;;6.19;100.00
39739;BME280;25422;48.286;8.484;2023-05-01T01:45:39;93907.13;;;6.19;100.00
39739;BME280;25422;48.286;8.484;2023-05-01T01:48:10;93903.56;;;6.20;100.00
39739;BME280;25422;48.286;8.484;2023-05-01T01:50:37;93904.75;;;6.26;100.00
39739;BME280;25422;48.286;8.484;2023-05-01T01:53:04;93912.53;;;6.26;100.00
39739;BME280;25422;48.286;8.484;2023-05-01T01:55:33;93905.69;;;6.25;100.00
39739;BME280;25422;48.286;8.484;2023-05-01T01:58:01;93904.91;;;6.24;100.00
39739;BME280;25422;48.286;8.484;2023-05-01T02:00:28;93898.91;;;6.24;100.00
39739;BME280;25422;48.286;8.484;2023-05-01T02:02:57;93906.75;;;6.32;100.00
39739;BME280;25422;48.286;8.484;2023-05-01T02:05:24;93893.09;;;6.30;100.00
39739;BME280;25422;48.286;8.484;2023-05-01T02:07:51;93898.28;;;6.30;100.00
39739;BME280;25422;48.286;8.484;2023-05-01T02:10:17;93887.88;;;6.30;100.00
39739;BME280;25422;48.286;8.484;2023-05-01T02:12:46;93892.44;;;6.28;100.00
39739;BME280;25422;48.286;8.484;2023-05-01T02:15:14;93890.47;;;6.30;100.00
39739;BME280;25422;48.286;8.484;2023-05-01T02:17:41;93892.28;;;6.30;100.00
39739;BME280;25422;48.286;8.484;2023-05-01T02:20:09;93885.06;;;6.23;100.00
39739;BME280;25422;48.286;8.484;2023-05-01T02:22:38;93887.66;;;6.23;100.00
39739;BME280;25422;48.286;8.484;2023-05-01T02:25:06;93885.91;;;6.24;100.00
39739;BME280;25422;48.286;8.484;2023-05-01T02:27:38;93888.78;;;6.21;100.00
39739;BME280;25422;48.286;8.484;2023-05-01T02:30:06;93881.28;;;6.18;100.00
39739;BME280;25422;48.286;8.484;2023-05-01T02:32:32;93889.63;;;6.21;100.00
39739;BME280;25422;48.286;8.484;2023-05-01T02:34:57;93872.69;;;6.17;100.00
39739;BME280;25422;48.286;8.484;2023-05-01T02:37:24;93871.72;;;6.18;100.00
39739;BME280;25422;48.286;8.484;2023-05-01T02:39:50;93874.84;;;6.22;100.00
39739;BME280;25422;48.286;8.484;2023-05-01T02:42:16;93874.53;;;6.25;100.00
39739;BME280;25422;48.286;8.484;2023-05-01T02:44:49;93871.03;;;6.34;100.00
39739;BME280;25422;48.286;8.484;2023-05-01T02:47:19;93868.13;;;6.37;100.00
39739;BME280;25422;48.286;8.484;2023-05-01T02:49:46;93871.44;;;6.48;100.00
39739;BME280;25422;48.286;8.484;2023-05-01T02:52:18;93865.44;;;6.47;100.00
39739;BME280;25422;48.286;8.484;2023-05-01T02:54:47;93861.41;;;6.53;100.00
39739;BME280;25422;48.286;8.484;2023-05-01T02:57:12;93860.16;;;6.57;100.00
39739;BME280;25422;48.286;8.484;2023-05-01T02:59:38;93858.19;;;6.59;100.00
39739;BME280;25422;48.286;8.484;2023-05-01T03:02:05;93854.00;;;6.58;100.00
39739;BME280;25422;48.286;8.484;2023-05-01T03:04:31;93857.75;;;6.64;100.00
39739;BME280;25422;48.286;8.484;2023-05-01T03:06:57;93849.00;;;6.65;100.00
39739;BME280;25422;48.286;8.484;2023-05-01T03:09:22;93853.00;;;6.59;100.00
39739;BME280;25422;48.286;8.484;2023-05-01T03:11:48;93846.31;;;6.56;100.00
39739;BME280;25422;48.286;8.484;2023-05-01T03:14:13;93841.47;;;6.62;100.00
39739;BME280;25422;48.286;8.484;2023-05-01T03:16:39;93841.69;;;6.68;100.00
39739;BME280;25422;48.286;8.484;2023-05-01T03:19:05;93839.75;;;6.70;100.00
39739;BME280;25422;48.286;8.484;2023-05-01T03:21:31;93842.00;;;6.65;100.00
39739;BME280;25422;48.286;8.484;2023-05-01T03:23:58;93831.13;;;6.70;100.00
39739;BME280;25422;48.286;8.484;2023-05-01T03:26:23;93845.25;;;6.67;100.00
39739;BME280;25422;48.286;8.484;2023-05-01T03:28:49;93837.44;;;6.67;100.00
39739;BME280;25422;48.286;8.484;2023-05-01T03:31:14;93833.41;;;6.65;100.00
39739;BME280;25422;48.286;8.484;2023-05-01T03:33:40;93835.31;;;6.63;100.00
39739;BME280;25422;48.286;8.484;2023-05-01T03:36:06;93840.38;;;6.64;100.00
39739;BME280;25422;48.286;8.484;2023-05-01T03:38:33;93839.50;;;6.55;100.00
39739;BME280;25422;48.286;8.484;2023-05-01T03:41:08;93832.84;;;6.53;100.00
39739;BME280;25422;48.286;8.484;2023-05-01T03:43:34;93831.94;;;6.44;100.00
39739;BME280;25422;48.286;8.484;2023-05-01T03:46:14;93835.22;;;6.46;100.00
39739;BME280;25422;48.286;8.484;2023-05-01T03:48:40;93835.03;;;6.39;100.00
39739;BME280;25422;48.286;8.484;2023-05-01T03:51:06;93834.88;;;6.41;100.00
39739;BME280;25422;48.286;8.484;2023-05-01T03:53:33;93837.31;;;6.43;100.00
39739;BME280;25422;48.286;8.484;2023-05-01T03:56:02;93835.75;;;6.50;100.00
39739;BME280;25422;48.286;8.484;2023-05-01T03:58:28;93837.50;;;6.49;100.00
39739;BME280;25422;48.286;8.484;2023-05-01T04:00:54;93841.22;;;6.47;100.00
39739;BME280;25422;48.286;8.484;2023-05-01T04:03:22;93835.22;;;6.46;100.00
39739;BME280;25422;48.286;8.484;2023-05-01T04:05:50;93845.41;;;6.39;100.00
39739;BME280;25422;48.286;8.484;2023-05-01T04:08:16;93840.22;;;6.39;100.00
39739;BME280;25422;48.286;8.484;2023-05-01T04:10:41;93837.00;;;6.46;100.00
39739;BME280;25422;48.286;8.484;2023-05-01T04:13:07;93836.03;;;6.47;100.00
39739;BME280;25422;48.286;8.484;2023-05-01T04:15:33;93837.50;;;6.49;100.00
39739;BME280;25422;48.286;8.484;2023-05-01T04:17:59;93838.19;;;6.51;100.00
39739;BME280;25422;48.286;8.484;2023-05-01T04:20:25;93835.13;;;6.56;100.00
39739;BME280;25422;48.286;8.484;2023-05-01T04:22:51;93846.47;;;6.55;100.00
39739;BME280;25422;48.286;8.484;2023-05-01T04:25:16;93841.13;;;6.56;100.00
39739;BME280;25422;48.286;8.484;2023-05-01T04:27:43;93845.88;;;6.61;100.00
39739;BME280;25422;48.286;8.484;2023-05-01T04:30:09;93841.94;;;6.57;100.00
39739;BME280;25422;48.286;8.484;2023-05-01T04:32:35;93852.16;;;6.50;100.00
39739;BME280;25422;48.286;8.484;2023-05-01T04:35:01;93848.06;;;6.48;100.00
39739;BME280;25422;48.286;8.484;2023-05-01T04:37:28;93847.09;;;6.49;100.00
39739;BME280;25422;48.286;8.484;2023-05-01T04:39:53;93847.75;;;6.51;100.00
39739;BME280;25422;48.286;8.484;2023-05-01T04:42:20;93845.50;;;6.56;100.00
39739;BME280;25422;48.286;8.484;2023-05-01T04:44:46;93851.72;;;6.63;100.00
39739;BME280;25422;48.286;8.484;2023-05-01T04:47:12;93848.16;;;6.64;100.00
39739;BME280;25422;48.286;8.484;2023-05-01T04:49:38;93847.03;;;6.67;100.00
39739;BME280;25422;48.286;8.484;2023-05-01T04:52:05;93849.84;;;6.73;100.00
39739;BME280;25422;48.286;8.484;2023-05-01T04:54:45;93851.53;;;6.83;100.00
39739;BME280;25422;48.286;8.484;2023-05-01T04:57:10;93858.25;;;6.94;100.00
39739;BME280;25422;48.286;8.484;2023-05-01T04:59:36;93850.78;;;6.99;100.00
39739;BME280;25422;48.286;8.484;2023-05-01T05:02:02;93860.25;;;7.08;100.00
39739;BME280;25422;48.286;8.484;2023-05-01T05:04:28;93859.78;;;7.13;100.00
39739;BME280;25422;48.286;8.484;2023-05-01T05:06:54;93865.34;;;7.18;100.00
39739;BME280;25422;48.286;8.484;2023-05-01T05:09:39;93862.25;;;7.22;100.00
39739;BME280;25422;48.286;8.484;2023-05-01T05:12:05;93861.81;;;7.27;100.00
39739;BME280;25422;48.286;8.484;2023-05-01T05:14:31;93863.59;;;7.26;100.00
39739;BME280;25422;48.286;8.484;2023-05-01T05:16:56;93862.44;;;7.29;100.00
39739;BME280;25422;48.286;8.484;2023-05-01T05:19:25;93861.50;;;7.30;100.00
39739;BME280;25422;48.286;8.484;2023-05-01T05:21:51;93864.91;;;7.31;100.00
39739;BME280;25422;48.286;8.484;2023-05-01T05:24:16;93864.72;;;7.32;100.00
39739;BME280;25422;48.286;8.484;2023-05-01T05:26:42;93861.03;;;7.43;100.00
39739;BME280;25422;48.286;8.484;2023-05-01T05:29:07;93857.31;;;7.54;100.00
39739;BME280;25422;48.286;8.484;2023-05-01T05:31:33;93858.81;;;7.73;100.00
39739;BME280;25422;48.286;8.484;2023-05-01T05:33:58;93860.81;;;7.87;100.00
39739;BME280;25422;48.286;8.484;2023-05-01T05:36:24;93864.22;;;7.96;100.00
39739;BME280;25422;48.286;8.484;2023-05-01T05:38:52;93860.50;;;8.07;100.00
39739;BME280;25422;48.286;8.484;2023-05-01T05:41:18;93863.09;;;8.15;100.00
39739;BME280;25422;48.286;8.484;2023-05-01T05:43:44;93856.13;;;8.24;100.00
39739;BME280;25422;48.286;8.484;2023-05-01T05:46:09;93866.38;;;8.34;100.00
39739;BME280;25422;48.286;8.484;2023-05-01T05:48:36;93866.38;;;8.34;100.00
39739;BME280;25422;48.286;8.484;2023-05-01T05:51:02;93866.38;;;8.34;100.00
39739;BME280;25422;48.286;8.484;2023-05-01T05:53:27;93868.19;;;8.25;100.00
39739;BME280;25422;48.286;8.484;2023-05-01T05:55:53;93865.53;;;8.00;100.00
39739;BME280;25422;48.286;8.484;2023-05-01T05:58:18;93863.25;;;7.97;100.00
39739;BME280;25422;48.286;8.484;2023-05-01T06:00:46;93862.78;;;7.93;100.00
39739;BME280;25422;48.286;8.484;2023-05-01T06:03:13;93862.94;;;8.00;100.00
39739;BME280;25422;48.286;8.484;2023-05-01T06:05:39;93863.09;;;7.99;100.00
39739;BME280;25422;48.286;8.484;2023-05-01T06:08:04;93868.19;;;8.17;100.00
39739;BME280;25422;48.286;8.484;2023-05-01T06:10:29;93868.47;;;8.30;100.00
39739;BME280;25422;48.286;8.484;2023-05-01T06:12:55;93862.97;;;8.41;100.00
39739;BME280;25422;48.286;8.484;2023-05-01T06:15:20;93864.94;;;8.48;100.00
39739;BME280;25422;48.286;8.484;2023-05-01T06:17:52;93865.25;;;8.53;100.00
39739;BME280;25422;48.286;8.484;2023-05-01T06:20:17;93864.09;;;8.39;100.00
39739;BME280;25422;48.286;8.484;2023-05-01T06:22:43;93863.13;;;8.32;100.00
39739;BME280;25422;48.286;8.484;2023-05-01T06:25:20;93866.03;;;8.37;100.00
39739;BME280;25422;48.286;8.484;2023-05-01T06:27:45;93858.22;;;8.37;100.00
39739;BME280;25422;48.286;8.484;2023-05-01T06:30:11;93870.94;;;8.23;100.00
39739;BME280;25422;48.286;8.484;2023-05-01T06:32:39;93868.81;;;8.02;100.00
39739;BME280;25422;48.286;8.484;2023-05-01T06:35:09;93869.78;;;7.93;100.00
39739;BME280;25422;48.286;8.484;2023-05-01T06:37:34;93859.84;;;7.88;100.00
39739;BME280;25422;48.286;8.484;2023-05-01T06:40:00;93863.44;;;7.96;100.00
39739;BME280;25422;48.286;8.484;2023-05-01T06:42:26;93867.34;;;8.00;100.00
39739;BME280;25422;48.286;8.484;2023-05-01T06:44:59;93868.47;;;8.05;100.00
39739;BME280;25422;48.286;8.484;2023-05-01T06:47:26;93868.00;;;8.02;100.00
39739;BME280;25422;48.286;8.484;2023-05-01T06:49:52;93862.97;;;8.08;100.00
39739;BME280;25422;48.286;8.484;2023-05-01T06:52:24;93867.50;;;8.15;100.00
39739;BME280;25422;48.286;8.484;2023-05-01T06:54:51;93867.84;;;8.20;100.00
39739;BME280;25422;48.286;8.484;2023-05-01T06:57:16;93874.38;;;8.24;100.00
39739;BME280;25422;48.286;8.484;2023-05-01T06:59:42;93875.50;;;8.30;100.00
39739;BME280;25422;48.286;8.484;2023-05-01T07:02:08;93876.81;;;8.34;100.00
39739;BME280;25422;48.286;8.484;2023-05-01T07:04:33;93877.13;;;8.39;100.00
39739;BME280;25422;48.286;8.484;2023-05-01T07:06:58;93880.25;;;8.51;100.00
39739;BME280;25422;48.286;8.484;2023-05-01T07:09:25;93884.31;;;8.62;100.00
39739;BME280;25422;48.286;8.484;2023-05-01T07:11:50;93879.41;;;8.83;100.00
39739;BME280;25422;48.286;8.484;2023-05-01T07:14:16;93886.06;;;9.02;100.00
39739;BME280;25422;48.286;8.484;2023-05-01T07:16:41;93878.78;;;9.29;100.00
39739;BME280;25422;48.286;8.484;2023-05-01T07:19:07;93875.41;;;9.52;100.00
39739;BME280;25422;48.286;8.484;2023-05-01T07:21:32;93865.47;;;9.55;100.00
39739;BME280;25422;48.286;8.484;2023-05-01T07:23:58;93873.53;;;9.37;100.00
39739;BME280;25422;48.286;8.484;2023-05-01T07:26:25;93873.47;;;9.54;100.00
39739;BME280;25422;48.286;8.484;2023-05-01T07:28:50;93872.78;;;9.60;100.00
39739;BME280;25422;48.286;8.484;2023-05-01T07:31:16;93865.84;;;9.75;100.00
39739;BME280;25422;48.286;8.484;2023-05-01T07:33:42;93869.94;;;10.01;100.00
39739;BME280;25422;48.286;8.484;2023-05-01T07:36:10;93872.03;;;10.29;100.00
39739;BME280;25422;48.286;8.484;2023-05-01T07:38:36;93867.75;;;10.36;100.00
39739;BME280;25422;48.286;8.484;2023-05-01T07:41:02;93873.06;;;10.43;100.00
39739;BME280;25422;48.286;8.484;2023-05-01T07:43:28;93872.38;;;10.49;100.00
39739;BME280;25422;48.286;8.484;2023-05-01T07:45:58;93862.28;;;10.23;100.00
39739;BME280;25422;48.286;8.484;2023-05-01T07:48:26;93869.72;;;10.11;100.00
39739;BME280;25422;48.286;8.484;2023-05-01T07:50:52;93862.50;;;10.36;100.00
39739;BME280;25422;48.286;8.484;2023-05-01T07:53:19;93869.69;;;10.34;100.00
39739;BME280;25422;48.286;8.484;2023-05-01T07:55:44;93870.38;;;10.28;100.00
39739;BME280;25422;48.286;8.484;2023-05-01T07:58:10;93871.22;;;10.28;100.00
39739;BME280;25422;48.286;8.484;2023-05-01T08:00:35;93868.59;;;10.28;100.00
39739;BME280;25422;48.286;8.484;2023-05-01T08:03:01;93866.63;;;10.07;100.00
39739;BME280;25422;48.286;8.484;2023-05-01T08:05:27;93870.31;;;9.90;100.00
39739;BME280;25422;48.286;8.484;2023-05-01T08:07:52;93869.41;;;9.83;100.00
39739;BME280;25422;48.286;8.484;2023-05-01T08:10:18;93872.63;;;9.85;100.00
39739;BME280;25422;48.286;8.484;2023-05-01T08:12:43;93877.72;;;9.86;100.00
39739;BME280;25422;48.286;8.484;2023-05-01T08:15:08;93872.84;;;9.75;100.00
39739;BME280;25422;48.286;8.484;2023-05-01T08:17:35;93870.91;;;9.77;100.00
39739;BME280;25422;48.286;8.484;2023-05-01T08:20:01;93875.69;;;9.65;100.00
39739;BME280;25422;48.286;8.484;2023-05-01T08:22:26;93870.53;;;9.49;100.00
39739;BME280;25422;48.286;8.484;2023-05-01T08:24:52;93878.13;;;9.27;100.00
39739;BME280;25422;48.286;8.484;2023-05-01T08:27:17;93879.78;;;9.28;100.00
39739;BME280;25422;48.286;8.484;2023-05-01T08:29:43;93883.38;;;9.19;100.00
39739;BME280;25422;48.286;8.484;2023-05-01T08:32:09;93887.81;;;9.02;100.00
39739;BME280;25422;48.286;8.484;2023-05-01T08:34:34;93889.00;;;8.91;100.00
39739;BME280;25422;48.286;8.484;2023-05-01T08:37:00;93888.84;;;8.84;100.00
39739;BME280;25422;48.286;8.484;2023-05-01T08:39:26;93886.91;;;8.78;100.00
39739;BME280;25422;48.286;8.484;2023-05-01T08:41:52;93893.13;;;8.69;100.00
39739;BME280;25422;48.286;8.484;2023-05-01T08:44:19;93896.38;;;8.54;100.00
39739;BME280;25422;48.286;8.484;2023-05-01T08:46:52;93896.72;;;8.51;100.00
39739;BME280;25422;48.286;8.484;2023-05-01T08:49:22;93885.78;;;8.48;100.00
39739;BME280;25422;48.286;8.484;2023-05-01T08:51:49;93890.84;;;8.57;100.00
39739;BME280;25422;48.286;8.484;2023-05-01T08:54:18;93888.88;;;8.68;100.00
39739;BME280;25422;48.286;8.484;2023-05-01T08:56:46;93888.06;;;8.67;100.00
39739;BME280;25422;48.286;8.484;2023-05-01T08:59:12;93891.94;;;8.88;100.00
39739;BME280;25422;48.286;8.484;2023-05-01T09:01:40;93886.34;;;9.07;100.00
39739;BME280;25422;48.286;8.484;2023-05-01T09:04:06;93890.84;;;9.30;100.00
39739;BME280;25422;48.286;8.484;2023-05-01T09:06:32;93885.16;;;9.66;100.00
39739;BME280;25422;48.286;8.484;2023-05-01T09:08:58;93888.22;;;9.70;100.00
39739;BME280;25422;48.286;8.484;2023-05-01T09:11:24;93890.72;;;9.94;100.00
39739;BME280;25422;48.286;8.484;2023-05-01T09:13:50;93885.69;;;10.16;100.00
39739;BME280;25422;48.286;8.484;2023-05-01T09:16:17;93885.06;;;10.37;100.00
39739;BME280;25422;48.286;8.484;2023-05-01T09:18:42;93892.19;;;10.67;100.00
39739;BME280;25422;48.286;8.484;2023-05-01T09:21:08;93890.75;;;10.64;100.00
39739;BME280;25422;48.286;8.484;2023-05-01T09:23:34;93892.09;;;10.60;100.00
39739;BME280;25422;48.286;8.484;2023-05-01T09:26:04;93889.53;;;10.90;100.00
39739;BME280;25422;48.286;8.484;2023-05-01T09:28:41;93897.03;;;11.23;100.00
39739;BME280;25422;48.286;8.484;2023-05-01T09:31:25;93896.22;;;11.37;100.00
39739;BME280;25422;48.286;8.484;2023-05-01T09:33:58;93894.38;;;11.82;100.00
39739;BME280;25422;48.286;8.484;2023-05-01T09:36:24;93892.03;;;11.73;100.00
39739;BME280;25422;48.286;8.484;2023-05-01T09:38:50;93900.63;;;11.81;100.00
39739;BME280;25422;48.286;8.484;2023-05-01T09:41:16;93897.84;;;11.68;100.00
39739;BME280;25422;48.286;8.484;2023-05-01T09:43:51;93898.28;;;11.42;100.00
39739;BME280;25422;48.286;8.484;2023-05-01T09:46:17;93902.56;;;11.28;100.00
39739;BME280;25422;48.286;8.484;2023-05-01T09:49:11;93895.94;;;11.47;100.00
39739;BME280;25422;48.286;8.484;2023-05-01T09:51:37;93895.69;;;11.42;100.00
39739;BME280;25422;48.286;8.484;2023-05-01T09:54:03;93901.94;;;11.41;100.00
39739;BME280;25422;48.286;8.484;2023-05-01T09:56:31;93903.81;;;11.32;100.00
39739;BME280;25422;48.286;8.484;2023-05-01T09:59:04;93902.38;;;11.44;100.00
39739;BME280;25422;48.286;8.484;2023-05-01T10:01:39;93897.66;;;11.55;100.00
39739;BME280;25422;48.286;8.484;2023-05-01T10:04:06;93888.97;;;11.69;100.00
39739;BME280;25422;48.286;8.484;2023-05-01T10:06:31;93890.03;;;11.90;100.00
39739;BME280;25422;48.286;8.484;2023-05-01T10:08:57;93890.97;;;11.67;100.00
39739;BME280;25422;48.286;8.484;2023-05-01T10:11:22;93894.34;;;11.97;100.00
39739;BME280;25422;48.286;8.484;2023-05-01T10:14:06;93890.59;;;12.22;100.00
39739;BME280;25422;48.286;8.484;2023-05-01T10:16:35;93896.50;;;12.09;100.00
39739;BME280;25422;48.286;8.484;2023-05-01T10:19:01;93895.50;;;12.10;100.00
39739;BME280;25422;48.286;8.484;2023-05-01T10:21:27;93899.28;;;12.22;100.00
39739;BME280;25422;48.286;8.484;2023-05-01T10:23:54;93902.59;;;12.31;100.00
39739;BME280;25422;48.286;8.484;2023-05-01T10:26:20;93889.47;;;12.31;100.00
39739;BME280;25422;48.286;8.484;2023-05-01T10:28:48;93896.41;;;12.17;100.00
39739;BME280;25422;48.286;8.484;2023-05-01T10:31:14;93899.16;;;12.52;100.00
39739;BME280;25422;48.286;8.484;2023-05-01T10:33:44;93904.19;;;12.10;100.00
39739;BME280;25422;48.286;8.484;2023-05-01T10:36:24;93898.56;;;12.13;100.00
39739;BME280;25422;48.286;8.484;2023-05-01T10:38:50;93904.56;;;11.92;100.00
39739;BME280;25422;48.286;8.484;2023-05-01T10:41:15;93904.31;;;11.87;100.00
39739;BME280;25422;48.286;8.484;2023-05-01T10:43:41;93895.78;;;12.37;100.00
39739;BME280;25422;48.286;8.484;2023-05-01T10:51:15;93893.53;;;13.82;100.00
39739;BME280;25422;48.286;8.484;2023-05-01T10:59:03;93887.28;;;14.72;100.00
39739;BME280;25422;48.286;8.484;2023-05-01T11:01:34;93881.06;;;13.97;100.00
39739;BME280;25422;48.286;8.484;2023-05-01T11:12:46;93870.91;;;14.70;100.00
39739;BME280;25422;48.286;8.484;2023-05-01T11:15:01;93870.25;;;15.28;100.00
39739;BME280;25422;48.286;8.484;2023-05-01T11:22:32;93863.69;;;15.57;100.00
39739;BME280;25422;48.286;8.484;2023-05-01T11:24:58;93867.19;;;15.96;100.00
39739;BME280;25422;48.286;8.484;2023-05-01T11:27:26;93862.50;;;16.37;100.00
39739;BME280;25422;48.286;8.484;2023-05-01T11:29:52;93863.97;;;17.15;95.62
39739;BME280;25422;48.286;8.484;2023-05-01T11:32:24;93862.91;;;17.79;92.58
39739;BME280;25422;48.286;8.484;2023-05-01T11:34:53;93865.91;;;17.45;82.30
39739;BME280;25422;48.286;8.484;2023-05-01T11:37:44;93865.75;;;17.22;94.12
39739;BME280;25422;48.286;8.484;2023-05-01T11:40:21;93852.72;;;16.44;86.11
39739;BME280;25422;48.286;8.484;2023-05-01T11:42:49;93856.63;;;17.17;87.76
39739;BME280;25422;48.286;8.484;2023-05-01T11:45:18;93855.47;;;17.50;85.49
39739;BME280;25422;48.286;8.484;2023-05-01T11:47:45;93856.06;;;16.90;75.52
39739;BME280;25422;48.286;8.484;2023-05-01T11:50:13;93852.00;;;16.88;74.83
39739;BME280;25422;48.286;8.484;2023-05-01T11:55:07;93847.50;;;16.63;78.18
39739;BME280;25422;48.286;8.484;2023-05-01T11:57:49;93850.16;;;18.79;63.91
39739;BME280;25422;48.286;8.484;2023-05-01T12:00:24;93831.41;;;18.50;62.23
39739;BME280;25422;48.286;8.484;2023-05-01T12:03:00;93843.94;;;17.26;63.54
39739;BME280;25422;48.286;8.484;2023-05-01T12:05:28;93839.66;;;16.24;62.04
39739;BME280;25422;48.286;8.484;2023-05-01T12:08:14;93839.81;;;15.91;69.41
39739;BME280;25422;48.286;8.484;2023-05-01T12:10:43;93836.88;;;15.67;73.15
39739;BME280;25422;48.286;8.484;2023-05-01T12:13:11;93828.78;;;16.07;69.20
39739;BME280;25422;48.286;8.484;2023-05-01T12:15:40;93828.69;;;16.52;65.81
39739;BME280;25422;48.286;8.484;2023-05-01T12:18:06;93827.75;;;16.08;69.45
39739;BME280;25422;48.286;8.484;2023-05-01T12:20:45;93836.25;;;16.17;71.76
39739;BME280;25422;48.286;8.484;2023-05-01T12:23:15;93830.75;;;16.18;75.77
39739;BME280;25422;48.286;8.484;2023-05-01T12:25:42;93837.63;;;15.74;81.02
39739;BME280;25422;48.286;8.484;2023-05-01T12:28:18;93837.09;;;15.59;83.92
39739;BME280;25422;48.286;8.484;2023-05-01T12:30:46;93835.66;;;15.63;80.54
39739;BME280;25422;48.286;8.484;2023-05-01T12:33:16;93842.25;;;15.27;93.24
39739;BME280;25422;48.286;8.484;2023-05-01T12:35:43;93840.66;;;15.19;82.94
39739;BME280;25422;48.286;8.484;2023-05-01T12:38:13;93841.03;;;15.29;82.42
39739;BME280;25422;48.286;8.484;2023-05-01T12:40:55;93841.69;;;15.18;83.59
39739;BME280;25422;48.286;8.484;2023-05-01T12:43:28;93842.28;;;15.13;84.25
39739;BME280;25422;48.286;8.484;2023-05-01T12:45:54;93839.03;;;15.31;81.08
39739;BME280;25422;48.286;8.484;2023-05-01T12:48:20;93839.47;;;15.74;79.47
39739;BME280;25422;48.286;8.484;2023-05-01T12:50:46;93834.19;;;16.76;73.50
39739;BME280;25422;48.286;8.484;2023-05-01T12:53:19;93830.19;;;17.17;64.03
39739;BME280;25422;48.286;8.484;2023-05-01T12:55:47;93830.78;;;17.38;59.99
39739;BME280;25422;48.286;8.484;2023-05-01T12:58:14;93826.72;;;16.98;64.48
39739;BME280;25422;48.286;8.484;2023-05-01T13:00:42;93820.75;;;16.27;66.12
39739;BME280;25422;48.286;8.484;2023-05-01T13:03:07;93824.53;;;16.89;66.24
39739;BME280;25422;48.286;8.484;2023-05-01T13:05:33;93829.47;;;17.29;69.34
39739;BME280;25422;48.286;8.484;2023-05-01T13:07:58;93821.09;;;16.63;61.44
39739;BME280;25422;48.286;8.484;2023-05-01T13:10:30;93822.31;;;16.60;62.82
39739;BME280;25422;48.286;8.484;2023-05-01T13:12:56;93824.25;;;16.46;64.80
39739;BME280;25422;48.286;8.484;2023-05-01T13:15:21;93813.56;;;16.34;62.37
39739;BME280;25422;48.286;8.484;2023-05-01T13:17:47;93819.06;;;16.33;65.40
39739;BME280;25422;48.286;8.484;2023-05-01T13:20:13;93811.50;;;16.11;65.03
39739;BME280;25422;48.286;8.484;2023-05-01T13:22:39;93819.06;;;16.33;66.59
39739;BME280;25422;48.286;8.484;2023-05-01T13:25:16;93822.44;;;15.76;64.18
39739;BME280;25422;48.286;8.484;2023-05-01T13:27:49;93824.81;;;15.32;68.07
39739;BME280;25422;48.286;8.484;2023-05-01T13:30:17;93832.22;;;15.56;72.19
39739;BME280;25422;48.286;8.484;2023-05-01T13:32:46;93828.69;;;15.89;68.86
39739;BME280;25422;48.286;8.484;2023-05-01T13:35:21;93832.47;;;17.14;64.79
39739;BME280;25422;48.286;8.484;2023-05-01T13:37:47;93822.91;;;17.68;62.36
39739;BME280;25422;48.286;8.484;2023-05-01T13:40:12;93816.44;;;17.64;61.05